createdAt,value
2019-05-13T00:02:50.024Z,8.00
2019-05-13T00:07:35.996Z,7.90
2019-05-13T00:12:21.111Z,7.90
2019-05-13T00:17:07.274Z,7.70
2019-05-13T00:21:54.478Z,7.50
2019-05-13T00:26:39.124Z,7.60
2019-05-13T00:31:24.257Z,7.40
2019-05-13T00:36:09.313Z,7.30
2019-05-13T00:40:54.667Z,7.30
2019-05-13T00:45:39.991Z,7.20
2019-05-13T00:50:25.379Z,7.00
2019-05-13T00:55:10.597Z,6.90
2019-05-13T00:59:55.726Z,6.90
2019-05-13T01:04:40.715Z,7.00
2019-05-13T01:09:26.040Z,7.10
2019-05-13T01:14:11.209Z,7.10
2019-05-13T01:18:56.057Z,6.90
2019-05-13T01:23:40.947Z,6.90
2019-05-13T01:28:26.133Z,6.90
2019-05-13T01:33:11.013Z,6.80
2019-05-13T01:37:56.067Z,6.80
2019-05-13T01:42:41.065Z,6.80
2019-05-13T01:47:25.831Z,6.70
2019-05-13T01:52:13.535Z,6.70
2019-05-13T01:56:57.627Z,6.70
2019-05-13T02:01:44.225Z,6.60
2019-05-13T02:06:28.886Z,6.40
2019-05-13T02:11:13.763Z,6.40
2019-05-13T02:15:58.985Z,6.20
2019-05-13T02:20:44.363Z,6.10
2019-05-13T02:25:29.827Z,6.10
2019-05-13T02:30:16.241Z,5.90
2019-05-13T02:35:02.922Z,5.50
2019-05-13T02:39:47.977Z,5.50
2019-05-13T02:44:33.524Z,5.60
2019-05-13T02:49:18.555Z,5.80
2019-05-13T02:54:03.809Z,5.80
2019-05-13T02:58:48.902Z,5.80
2019-05-13T03:03:33.590Z,5.60
2019-05-13T03:08:38.040Z,5.50
2019-05-13T03:13:05.193Z,5.40
2019-05-13T03:18:08.453Z,5.20
2019-05-13T03:22:53.689Z,5.10
2019-05-13T03:27:38.479Z,5.20
2019-05-13T03:32:26.118Z,5.10
2019-05-13T03:37:15.100Z,5.00
2019-05-13T03:41:58.765Z,5.10
2019-05-13T03:46:43.976Z,5.30
2019-05-13T03:51:28.698Z,5.20
2019-05-13T03:56:13.671Z,5.10
2019-05-13T04:00:58.851Z,5.20
2019-05-13T04:05:44.188Z,5.10
2019-05-13T04:10:29.340Z,5.00
2019-05-13T04:15:14.604Z,4.80
2019-05-13T04:20:02.770Z,4.70
2019-05-13T04:24:48.489Z,4.60
2019-05-13T04:29:33.725Z,4.60
2019-05-13T04:34:22.745Z,4.50
2019-05-13T04:39:06.956Z,4.60
2019-05-13T04:43:53.940Z,4.70
2019-05-13T04:48:40.582Z,4.90
2019-05-13T04:53:25.306Z,5.10
2019-05-13T04:58:12.934Z,5.40
2019-05-13T05:03:22.988Z,5.50
2019-05-13T05:08:32.897Z,5.80
2019-05-13T05:13:32.382Z,6.10
2019-05-13T05:19:02.098Z,6.30
2019-05-13T05:24:25.693Z,6.50
2019-05-13T05:29:39.228Z,6.70
2019-05-13T05:34:41.812Z,7.00
2019-05-13T05:39:27.172Z,7.20
2019-05-13T05:44:14.002Z,7.50
2019-05-13T05:49:04.257Z,7.50
2019-05-13T05:53:52.011Z,8.00
2019-05-13T05:58:37.267Z,8.20
2019-05-13T06:03:25.558Z,8.50
2019-05-13T06:08:11.422Z,8.50
2019-05-13T06:12:57.854Z,8.40
2019-05-13T06:17:42.941Z,8.40
2019-05-13T06:22:28.044Z,8.70
2019-05-13T06:27:15.620Z,8.90
2019-05-13T06:32:15.175Z,9.20
2019-05-13T06:36:52.128Z,9.40
2019-05-13T06:41:36.863Z,9.70
2019-05-13T06:46:24.353Z,9.60
2019-05-13T06:51:11.506Z,9.80
2019-05-13T06:55:55.630Z,10.10
2019-05-13T07:00:42.740Z,10.40
2019-05-13T07:05:31.659Z,10.50
2019-05-13T07:10:16.085Z,10.80
2019-05-13T07:15:02.439Z,10.90
2019-05-13T07:19:47.491Z,10.70
2019-05-13T07:24:32.683Z,11.00
2019-05-13T07:29:17.685Z,10.90
2019-05-13T07:34:03.138Z,10.90
2019-05-13T07:38:48.324Z,11.30
2019-05-13T07:43:33.761Z,11.30
2019-05-13T07:48:21.400Z,11.00
2019-05-13T08:23:32.327Z,12.70
2019-05-13T08:28:22.378Z,12.80
2019-05-13T08:33:06.387Z,13.20
2019-05-13T08:37:55.567Z,13.20
2019-05-13T08:42:37.885Z,13.40
2019-05-13T08:47:22.685Z,13.70
2019-05-13T08:52:07.747Z,13.80
2019-05-13T08:56:53.403Z,14.20
2019-05-13T09:01:38.481Z,14.30
2019-05-13T09:06:23.288Z,14.00
2019-05-13T09:11:08.278Z,13.90
2019-05-13T09:15:53.210Z,13.30
2019-05-13T09:20:41.619Z,13.40
2019-05-13T09:25:26.569Z,13.80
2019-05-13T09:30:11.925Z,13.40
2019-05-13T09:34:57.720Z,13.90
2019-05-13T09:39:42.894Z,13.50
2019-05-13T09:44:28.123Z,14.20
2019-05-13T09:49:20.062Z,14.80
2019-05-13T09:54:02.591Z,14.30
2019-05-13T09:58:47.773Z,14.80
2019-05-13T10:03:33.344Z,15.60
2019-05-13T10:08:21.999Z,15.40
2019-05-13T10:13:12.039Z,16.50
2019-05-13T10:17:53.878Z,16.20
2019-05-13T10:22:42.123Z,15.70
2019-05-13T10:27:27.289Z,15.60
2019-05-13T10:32:12.677Z,15.60
2019-05-13T10:37:02.546Z,16.20
2019-05-13T10:41:52.345Z,16.60
2019-05-13T10:46:37.804Z,16.10
2019-05-13T10:51:22.602Z,16.60
2019-05-13T10:56:07.548Z,16.80
2019-05-13T11:00:54.575Z,16.50
2019-05-13T11:05:44.637Z,17.10
2019-05-13T11:10:33.233Z,17.90
2019-05-13T11:15:18.231Z,18.20
2019-05-13T11:20:03.726Z,17.00
2019-05-13T11:24:51.828Z,16.00
2019-05-13T11:29:36.678Z,15.20
2019-05-13T11:34:22.114Z,14.90
2019-05-13T11:39:12.650Z,14.60
2019-05-13T11:44:12.196Z,15.60
2019-05-13T11:48:44.942Z,16.60
2019-05-13T11:53:33.517Z,16.80
2019-05-13T11:58:16.324Z,17.20
2019-05-13T12:03:04.356Z,16.10
2019-05-13T12:07:53.485Z,15.20
2019-05-13T12:12:43.912Z,14.50
2019-05-13T12:17:28.028Z,14.60
2019-05-13T12:22:13.692Z,14.70
2019-05-13T12:26:59.109Z,14.70
2019-05-13T12:31:43.971Z,14.30
2019-05-13T12:36:32.750Z,14.70
2019-05-13T12:41:16.699Z,16.60
2019-05-13T12:46:02.564Z,16.30
2019-05-13T12:50:47.545Z,15.20
2019-05-13T12:55:33.143Z,15.20
2019-05-13T13:00:18.657Z,14.40
2019-05-13T13:05:13.530Z,14.60
2019-05-13T13:09:53.401Z,15.40
2019-05-13T13:14:44.288Z,14.70
2019-05-13T13:19:29.623Z,14.60
2019-05-13T13:24:15.315Z,13.90
2019-05-13T13:29:00.602Z,13.80
2019-05-13T13:33:46.173Z,14.10
2019-05-13T13:38:32.652Z,14.60
2019-05-13T13:43:18.075Z,14.20
2019-05-13T13:48:04.233Z,15.10
2019-05-13T13:52:52.553Z,16.20
2019-05-13T13:57:36.189Z,16.80
2019-05-13T14:02:25.466Z,17.20
2019-05-13T14:07:28.105Z,16.50
2019-05-13T14:12:01.842Z,15.90
2019-05-13T14:16:46.773Z,16.00
2019-05-13T14:21:34.787Z,16.10
2019-05-13T14:26:22.154Z,15.20
2019-05-13T14:31:09.264Z,14.80
2019-05-13T14:35:54.310Z,14.60
2019-05-13T14:40:39.515Z,14.80
2019-05-13T14:45:24.963Z,14.40
2019-05-13T14:50:12.166Z,15.00
2019-05-13T14:54:57.182Z,15.30
2019-05-13T14:59:42.087Z,16.10
2019-05-13T15:04:26.891Z,17.50
2019-05-13T15:09:12.623Z,17.90
2019-05-13T15:13:58.220Z,18.40
2019-05-13T15:18:43.455Z,17.90
2019-05-13T15:23:31.450Z,16.50
2019-05-13T15:28:16.987Z,15.10
2019-05-13T15:33:02.578Z,14.50
2019-05-13T15:37:48.094Z,13.80
2019-05-13T15:42:33.583Z,13.90
2019-05-13T15:47:29.174Z,15.40
2019-05-13T15:52:11.097Z,15.50
2019-05-13T15:56:58.254Z,15.70
2019-05-13T16:01:52.498Z,17.00
2019-05-13T16:06:41.789Z,16.30
2019-05-13T16:11:26.897Z,14.90
2019-05-13T16:16:12.376Z,14.10
2019-05-13T16:20:57.333Z,13.80
2019-05-13T16:25:44.633Z,13.40
2019-05-13T16:30:33.746Z,13.30
2019-05-13T16:35:21.779Z,13.00
2019-05-13T16:40:07.667Z,12.80
2019-05-13T16:44:52.853Z,13.00
2019-05-13T16:49:40.989Z,13.00
2019-05-13T16:54:25.914Z,13.00
2019-05-13T16:59:10.926Z,12.90
2019-05-13T17:03:55.780Z,12.70
2019-05-13T17:08:55.032Z,12.70
2019-05-13T17:13:43.184Z,13.30
2019-05-13T17:18:32.484Z,14.70
2019-05-13T17:23:18.058Z,14.30
2019-05-13T17:28:06.207Z,14.00
2019-05-13T17:32:54.290Z,13.70
2019-05-13T17:37:42.228Z,13.40
2019-05-13T17:42:27.598Z,13.20
2019-05-13T17:47:13.431Z,12.70
2019-05-13T17:52:04.410Z,12.40
2019-05-13T17:56:53.553Z,12.20
2019-05-13T18:01:41.258Z,11.90
2019-05-13T18:06:27.630Z,11.70
2019-05-13T18:11:13.261Z,11.70
2019-05-13T18:15:59.065Z,11.50
2019-05-13T18:20:45.158Z,11.30
2019-05-13T18:25:36.173Z,11.00
2019-05-13T18:30:22.115Z,10.70
2019-05-13T18:35:07.651Z,10.30
2019-05-13T18:39:53.187Z,10.00
2019-05-13T18:44:38.451Z,9.80
2019-05-13T18:49:24.025Z,9.60
2019-05-13T18:54:11.694Z,9.40
2019-05-13T18:58:56.417Z,9.20
2019-05-13T19:03:41.975Z,9.00
2019-05-13T19:08:27.116Z,8.90
2019-05-13T19:13:12.769Z,8.80
2019-05-13T19:17:58.043Z,8.40
2019-05-13T19:22:43.290Z,8.10
2019-05-13T19:27:28.398Z,8.10
2019-05-13T19:32:13.243Z,7.90
2019-05-13T19:36:58.646Z,7.70
2019-05-13T19:41:43.631Z,7.60
2019-05-13T19:46:28.554Z,7.50
2019-05-13T19:51:13.689Z,7.40
2019-05-13T19:56:27.629Z,7.50
2019-05-13T20:01:38.284Z,7.70
2019-05-13T20:06:34.728Z,7.50
2019-05-13T20:16:48.673Z,7.10
2019-05-13T20:21:36.249Z,6.90
2019-05-13T20:26:32.133Z,6.70
2019-05-13T20:31:32.054Z,6.80
2019-05-13T20:36:22.101Z,6.90
2019-05-13T20:41:12.187Z,7.10
2019-05-13T20:46:03.868Z,7.60
2019-05-13T20:50:53.335Z,7.90
2019-05-13T20:56:03.493Z,8.10
2019-05-13T21:01:07.788Z,8.10
2019-05-13T21:05:53.960Z,8.20
2019-05-13T21:10:41.976Z,8.40
2019-05-13T21:15:51.910Z,8.60
2019-05-13T21:20:59.541Z,8.70
2019-05-13T21:25:54.366Z,8.60
2019-05-13T21:30:54.639Z,8.50
2019-05-13T21:35:57.060Z,8.40
2019-05-13T21:40:44.701Z,8.30
2019-05-13T21:45:41.083Z,8.10
2019-05-13T21:50:36.893Z,7.90
2019-05-13T22:00:52.823Z,7.00
2019-05-13T22:05:52.866Z,6.40
2019-05-13T22:10:46.176Z,6.00
2019-05-13T22:15:43.099Z,5.60
2019-05-13T22:20:53.576Z,5.30
2019-05-13T22:25:31.563Z,5.30
2019-05-13T22:30:19.475Z,5.10
2019-05-13T22:35:18.229Z,4.90
2019-05-13T22:40:21.936Z,4.70
2019-05-13T22:45:21.772Z,4.50
2019-05-13T22:50:16.224Z,4.40
2019-05-13T22:55:18.181Z,4.40
2019-05-13T23:00:06.527Z,4.40
2019-05-13T23:05:15.465Z,4.40
2019-05-13T23:10:11.806Z,4.40
2019-05-13T23:15:05.243Z,4.20
2019-05-13T23:20:06.137Z,4.20
2019-05-13T23:24:57.665Z,4.10
2019-05-13T23:29:48.493Z,4.10
2019-05-13T23:34:44.609Z,4.20
2019-05-13T23:39:41.525Z,4.40
2019-05-13T23:44:33.475Z,4.50
2019-05-13T23:49:58.685Z,4.80
2019-05-13T23:55:41.580Z,5.40
